sensor_id;sensor_type;location;lat;lon;timestamp;P1;durP1;ratioP1;P2;durP2;ratioP2
50803;SDS011;37205;51.434;6.756;2023-12-07T00:00:40;68.43;;;41.90;;
50803;SDS011;37205;51.434;6.756;2023-12-07T00:03:05;63.38;;;41.13;;
50803;SDS011;37205;51.434;6.756;2023-12-07T00:05:32;56.13;;;39.20;;
50803;SDS011;37205;51.434;6.756;2023-12-07T00:07:57;60.85;;;40.58;;
50803;SDS011;37205;51.434;6.756;2023-12-07T00:10:23;55.97;;;38.92;;
50803;SDS011;37205;51.434;6.756;2023-12-07T00:12:49;53.90;;;37.65;;
50803;SDS011;37205;51.434;6.756;2023-12-07T00:15:14;54.70;;;36.72;;
50803;SDS011;37205;51.434;6.756;2023-12-07T00:17:40;51.75;;;34.60;;
50803;SDS011;37205;51.434;6.756;2023-12-07T00:20:05;54.47;;;35.70;;
50803;SDS011;37205;51.434;6.756;2023-12-07T00:22:31;48.40;;;35.03;;
50803;SDS011;37205;51.434;6.756;2023-12-07T00:24:57;47.45;;;32.75;;
50803;SDS011;37205;51.434;6.756;2023-12-07T00:27:22;47.13;;;32.53;;
50803;SDS011;37205;51.434;6.756;2023-12-07T00:29:48;48.05;;;31.63;;
50803;SDS011;37205;51.434;6.756;2023-12-07T00:32:13;43.78;;;31.42;;
50803;SDS011;37205;51.434;6.756;2023-12-07T00:34:39;41.90;;;29.20;;
50803;SDS011;37205;51.434;6.756;2023-12-07T00:37:04;40.50;;;29.13;;
50803;SDS011;37205;51.434;6.756;2023-12-07T00:39:30;38.67;;;28.50;;
50803;SDS011;37205;51.434;6.756;2023-12-07T00:41:56;40.03;;;28.52;;
50803;SDS011;37205;51.434;6.756;2023-12-07T00:44:21;40.00;;;28.45;;
50803;SDS011;37205;51.434;6.756;2023-12-07T00:46:47;42.90;;;29.58;;
50803;SDS011;37205;51.434;6.756;2023-12-07T00:49:12;40.90;;;27.80;;
50803;SDS011;37205;51.434;6.756;2023-12-07T00:51:38;47.65;;;29.48;;
50803;SDS011;37205;51.434;6.756;2023-12-07T00:54:03;47.95;;;28.95;;
50803;SDS011;37205;51.434;6.756;2023-12-07T00:56:29;44.35;;;30.08;;
50803;SDS011;37205;51.434;6.756;2023-12-07T00:58:54;42.20;;;27.98;;
50803;SDS011;37205;51.434;6.756;2023-12-07T01:01:20;42.63;;;28.48;;
50803;SDS011;37205;51.434;6.756;2023-12-07T01:03:45;47.40;;;31.05;;
50803;SDS011;37205;51.434;6.756;2023-12-07T01:06:11;51.97;;;33.40;;
50803;SDS011;37205;51.434;6.756;2023-12-07T01:08:37;67.03;;;34.20;;
50803;SDS011;37205;51.434;6.756;2023-12-07T01:11:03;48.80;;;31.48;;
50803;SDS011;37205;51.434;6.756;2023-12-07T01:13:29;45.20;;;30.75;;
50803;SDS011;37205;51.434;6.756;2023-12-07T01:15:55;51.65;;;33.35;;
50803;SDS011;37205;51.434;6.756;2023-12-07T01:18:21;69.80;;;34.92;;
50803;SDS011;37205;51.434;6.756;2023-12-07T01:20:46;65.70;;;36.10;;
50803;SDS011;37205;51.434;6.756;2023-12-07T01:23:13;86.30;;;38.30;;
50803;SDS011;37205;51.434;6.756;2023-12-07T01:25:38;74.43;;;37.80;;
50803;SDS011;37205;51.434;6.756;2023-12-07T01:28:04;103.45;;;40.90;;
50803;SDS011;37205;51.434;6.756;2023-12-07T01:30:30;89.28;;;40.35;;
50803;SDS011;37205;51.434;6.756;2023-12-07T01:32:55;95.53;;;39.50;;
50803;SDS011;37205;51.434;6.756;2023-12-07T01:35:21;76.03;;;40.15;;
50803;SDS011;37205;51.434;6.756;2023-12-07T01:37:46;87.32;;;41.05;;
50803;SDS011;37205;51.434;6.756;2023-12-07T01:40:12;93.25;;;40.47;;
50803;SDS011;37205;51.434;6.756;2023-12-07T01:42:39;101.15;;;43.25;;
50803;SDS011;37205;51.434;6.756;2023-12-07T01:45:14;130.93;;;45.03;;
50803;SDS011;37205;51.434;6.756;2023-12-07T01:47:40;105.72;;;44.92;;
50803;SDS011;37205;51.434;6.756;2023-12-07T01:50:06;78.22;;;41.97;;
50803;SDS011;37205;51.434;6.756;2023-12-07T01:52:35;103.50;;;44.58;;
50803;SDS011;37205;51.434;6.756;2023-12-07T01:55:04;66.82;;;40.80;;
50803;SDS011;37205;51.434;6.756;2023-12-07T01:57:32;86.15;;;41.92;;
50803;SDS011;37205;51.434;6.756;2023-12-07T01:59:57;70.45;;;42.33;;
50803;SDS011;37205;51.434;6.756;2023-12-07T02:02:23;63.83;;;40.00;;
50803;SDS011;37205;51.434;6.756;2023-12-07T02:04:49;72.18;;;42.00;;
50803;SDS011;37205;51.434;6.756;2023-12-07T02:07:14;83.30;;;42.75;;
50803;SDS011;37205;51.434;6.756;2023-12-07T02:09:40;73.35;;;41.88;;
50803;SDS011;37205;51.434;6.756;2023-12-07T02:12:07;81.00;;;41.38;;
50803;SDS011;37205;51.434;6.756;2023-12-07T02:14:32;62.78;;;40.17;;
50803;SDS011;37205;51.434;6.756;2023-12-07T02:17:17;100.40;;;42.22;;
50803;SDS011;37205;51.434;6.756;2023-12-07T02:19:50;95.18;;;45.92;;
50803;SDS011;37205;51.434;6.756;2023-12-07T02:22:47;82.78;;;39.40;;
50803;SDS011;37205;51.434;6.756;2023-12-07T02:25:18;63.20;;;39.30;;
50803;SDS011;37205;51.434;6.756;2023-12-07T02:27:46;68.30;;;40.85;;
50803;SDS011;37205;51.434;6.756;2023-12-07T02:30:12;59.97;;;37.95;;
50803;SDS011;37205;51.434;6.756;2023-12-07T02:32:40;61.10;;;38.50;;
50803;SDS011;37205;51.434;6.756;2023-12-07T02:35:08;61.58;;;37.72;;
50803;SDS011;37205;51.434;6.756;2023-12-07T02:37:50;60.90;;;37.80;;
50803;SDS011;37205;51.434;6.756;2023-12-07T02:40:17;70.80;;;41.15;;
50803;SDS011;37205;51.434;6.756;2023-12-07T02:42:47;63.10;;;39.45;;
50803;SDS011;37205;51.434;6.756;2023-12-07T02:45:14;68.00;;;39.95;;
50803;SDS011;37205;51.434;6.756;2023-12-07T02:47:40;63.20;;;38.70;;
50803;SDS011;37205;51.434;6.756;2023-12-07T02:50:08;69.57;;;42.20;;
50803;SDS011;37205;51.434;6.756;2023-12-07T02:52:34;76.70;;;41.90;;
50803;SDS011;37205;51.434;6.756;2023-12-07T02:55:00;75.70;;;44.08;;
50803;SDS011;37205;51.434;6.756;2023-12-07T02:57:27;75.63;;;43.60;;
50803;SDS011;37205;51.434;6.756;2023-12-07T02:59:53;71.53;;;43.17;;
50803;SDS011;37205;51.434;6.756;2023-12-07T03:02:18;81.65;;;44.42;;
50803;SDS011;37205;51.434;6.756;2023-12-07T03:04:44;80.38;;;45.20;;
50803;SDS011;37205;51.434;6.756;2023-12-07T03:07:10;81.07;;;46.05;;
50803;SDS011;37205;51.434;6.756;2023-12-07T03:09:36;79.85;;;45.85;;
50803;SDS011;37205;51.434;6.756;2023-12-07T03:12:01;79.90;;;45.63;;
50803;SDS011;37205;51.434;6.756;2023-12-07T03:14:27;78.57;;;45.33;;
50803;SDS011;37205;51.434;6.756;2023-12-07T03:16:52;84.95;;;45.72;;
50803;SDS011;37205;51.434;6.756;2023-12-07T03:19:18;80.03;;;44.00;;
50803;SDS011;37205;51.434;6.756;2023-12-07T03:21:44;83.28;;;46.42;;
50803;SDS011;37205;51.434;6.756;2023-12-07T03:24:09;86.45;;;46.50;;
50803;SDS011;37205;51.434;6.756;2023-12-07T03:26:35;84.25;;;46.00;;
50803;SDS011;37205;51.434;6.756;2023-12-07T03:29:01;91.10;;;47.65;;
50803;SDS011;37205;51.434;6.756;2023-12-07T03:31:28;88.13;;;48.33;;
50803;SDS011;37205;51.434;6.756;2023-12-07T03:33:54;88.65;;;47.22;;
50803;SDS011;37205;51.434;6.756;2023-12-07T03:36:20;83.78;;;46.92;;
50803;SDS011;37205;51.434;6.756;2023-12-07T03:38:45;95.70;;;50.38;;
50803;SDS011;37205;51.434;6.756;2023-12-07T03:41:11;96.38;;;49.42;;
50803;SDS011;37205;51.434;6.756;2023-12-07T03:43:37;98.32;;;49.80;;
50803;SDS011;37205;51.434;6.756;2023-12-07T03:46:05;102.15;;;50.90;;
50803;SDS011;37205;51.434;6.756;2023-12-07T03:48:32;91.85;;;47.88;;
50803;SDS011;37205;51.434;6.756;2023-12-07T03:50:58;82.28;;;46.60;;
50803;SDS011;37205;51.434;6.756;2023-12-07T03:53:23;87.75;;;47.58;;
50803;SDS011;37205;51.434;6.756;2023-12-07T03:55:49;92.15;;;48.58;;
50803;SDS011;37205;51.434;6.756;2023-12-07T03:58:14;82.22;;;45.33;;
50803;SDS011;37205;51.434;6.756;2023-12-07T04:00:40;86.80;;;47.70;;
50803;SDS011;37205;51.434;6.756;2023-12-07T04:03:06;87.38;;;45.33;;
50803;SDS011;37205;51.434;6.756;2023-12-07T04:05:38;87.07;;;46.03;;
50803;SDS011;37205;51.434;6.756;2023-12-07T04:08:04;83.50;;;46.45;;
50803;SDS011;37205;51.434;6.756;2023-12-07T04:10:30;81.72;;;46.40;;
50803;SDS011;37205;51.434;6.756;2023-12-07T04:12:56;78.53;;;44.80;;
50803;SDS011;37205;51.434;6.756;2023-12-07T04:15:21;83.75;;;47.67;;
50803;SDS011;37205;51.434;6.756;2023-12-07T04:17:48;84.60;;;46.30;;
50803;SDS011;37205;51.434;6.756;2023-12-07T04:20:13;73.57;;;42.80;;
50803;SDS011;37205;51.434;6.756;2023-12-07T04:22:39;79.45;;;43.00;;
50803;SDS011;37205;51.434;6.756;2023-12-07T04:25:05;75.88;;;43.55;;
50803;SDS011;37205;51.434;6.756;2023-12-07T04:27:32;73.65;;;42.35;;
50803;SDS011;37205;51.434;6.756;2023-12-07T04:29:58;79.25;;;43.42;;
50803;SDS011;37205;51.434;6.756;2023-12-07T04:32:24;73.32;;;43.13;;
50803;SDS011;37205;51.434;6.756;2023-12-07T04:34:50;74.82;;;43.10;;
50803;SDS011;37205;51.434;6.756;2023-12-07T04:37:16;74.97;;;42.58;;
50803;SDS011;37205;51.434;6.756;2023-12-07T04:39:42;69.13;;;41.72;;
50803;SDS011;37205;51.434;6.756;2023-12-07T04:42:07;79.15;;;45.40;;
50803;SDS011;37205;51.434;6.756;2023-12-07T04:44:33;78.22;;;44.15;;
50803;SDS011;37205;51.434;6.756;2023-12-07T04:46:58;76.45;;;43.88;;
50803;SDS011;37205;51.434;6.756;2023-12-07T04:49:24;75.78;;;42.72;;
50803;SDS011;37205;51.434;6.756;2023-12-07T04:51:49;83.50;;;44.65;;
50803;SDS011;37205;51.434;6.756;2023-12-07T04:54:15;78.57;;;44.53;;
50803;SDS011;37205;51.434;6.756;2023-12-07T04:56:41;73.18;;;42.40;;
50803;SDS011;37205;51.434;6.756;2023-12-07T04:59:07;74.90;;;42.70;;
50803;SDS011;37205;51.434;6.756;2023-12-07T05:01:33;81.97;;;45.72;;
50803;SDS011;37205;51.434;6.756;2023-12-07T05:04:00;78.38;;;44.47;;
50803;SDS011;37205;51.434;6.756;2023-12-07T05:06:28;73.40;;;42.47;;
50803;SDS011;37205;51.434;6.756;2023-12-07T05:08:54;82.28;;;44.85;;
50803;SDS011;37205;51.434;6.756;2023-12-07T05:11:20;83.25;;;45.35;;
50803;SDS011;37205;51.434;6.756;2023-12-07T05:13:45;75.00;;;43.22;;
50803;SDS011;37205;51.434;6.756;2023-12-07T05:16:11;82.05;;;44.80;;
50803;SDS011;37205;51.434;6.756;2023-12-07T05:18:37;75.43;;;42.78;;
50803;SDS011;37205;51.434;6.756;2023-12-07T05:21:02;74.63;;;42.55;;
50803;SDS011;37205;51.434;6.756;2023-12-07T05:23:28;76.43;;;43.17;;
50803;SDS011;37205;51.434;6.756;2023-12-07T05:25:53;72.60;;;42.22;;
50803;SDS011;37205;51.434;6.756;2023-12-07T05:28:19;73.93;;;41.50;;
50803;SDS011;37205;51.434;6.756;2023-12-07T05:30:45;66.95;;;39.35;;
50803;SDS011;37205;51.434;6.756;2023-12-07T05:33:11;71.30;;;42.92;;
50803;SDS011;37205;51.434;6.756;2023-12-07T05:35:36;67.55;;;41.00;;
50803;SDS011;37205;51.434;6.756;2023-12-07T05:38:02;72.80;;;41.47;;
50803;SDS011;37205;51.434;6.756;2023-12-07T05:40:28;72.32;;;43.13;;
50803;SDS011;37205;51.434;6.756;2023-12-07T05:42:54;64.47;;;40.92;;
50803;SDS011;37205;51.434;6.756;2023-12-07T05:45:20;64.00;;;38.75;;
50803;SDS011;37205;51.434;6.756;2023-12-07T05:47:46;66.57;;;41.05;;
50803;SDS011;37205;51.434;6.756;2023-12-07T05:50:11;63.50;;;39.15;;
50803;SDS011;37205;51.434;6.756;2023-12-07T05:52:37;67.18;;;39.15;;
50803;SDS011;37205;51.434;6.756;2023-12-07T05:55:02;62.90;;;39.78;;
50803;SDS011;37205;51.434;6.756;2023-12-07T05:57:29;62.03;;;38.63;;
50803;SDS011;37205;51.434;6.756;2023-12-07T05:59:56;60.78;;;39.20;;
50803;SDS011;37205;51.434;6.756;2023-12-07T06:02:21;66.72;;;40.03;;
50803;SDS011;37205;51.434;6.756;2023-12-07T06:04:47;66.00;;;37.47;;
50803;SDS011;37205;51.434;6.756;2023-12-07T06:07:12;65.43;;;38.25;;
50803;SDS011;37205;51.434;6.756;2023-12-07T06:09:38;64.53;;;37.42;;
50803;SDS011;37205;51.434;6.756;2023-12-07T06:12:03;63.50;;;37.80;;
50803;SDS011;37205;51.434;6.756;2023-12-07T06:14:29;64.30;;;38.85;;
50803;SDS011;37205;51.434;6.756;2023-12-07T06:16:55;60.58;;;38.78;;
50803;SDS011;37205;51.434;6.756;2023-12-07T06:19:20;62.45;;;37.95;;
50803;SDS011;37205;51.434;6.756;2023-12-07T06:21:46;61.17;;;36.42;;
50803;SDS011;37205;51.434;6.756;2023-12-07T06:24:12;58.03;;;36.80;;
50803;SDS011;37205;51.434;6.756;2023-12-07T06:26:39;57.60;;;37.13;;
50803;SDS011;37205;51.434;6.756;2023-12-07T06:29:04;61.83;;;37.92;;
50803;SDS011;37205;51.434;6.756;2023-12-07T06:31:32;63.30;;;38.60;;
50803;SDS011;37205;51.434;6.756;2023-12-07T06:33:58;54.40;;;36.13;;
50803;SDS011;37205;51.434;6.756;2023-12-07T06:36:25;64.22;;;37.67;;
50803;SDS011;37205;51.434;6.756;2023-12-07T06:38:52;59.85;;;37.65;;
50803;SDS011;37205;51.434;6.756;2023-12-07T06:41:19;58.08;;;36.55;;
50803;SDS011;37205;51.434;6.756;2023-12-07T06:43:45;61.00;;;37.92;;
50803;SDS011;37205;51.434;6.756;2023-12-07T06:46:11;66.10;;;38.75;;
50803;SDS011;37205;51.434;6.756;2023-12-07T06:48:38;55.28;;;36.97;;
50803;SDS011;37205;51.434;6.756;2023-12-07T06:51:03;61.53;;;38.60;;
50803;SDS011;37205;51.434;6.756;2023-12-07T06:53:30;62.55;;;36.35;;
50803;SDS011;37205;51.434;6.756;2023-12-07T06:55:56;66.75;;;37.55;;
50803;SDS011;37205;51.434;6.756;2023-12-07T06:58:22;61.88;;;37.65;;
50803;SDS011;37205;51.434;6.756;2023-12-07T07:00:48;65.88;;;37.60;;
50803;SDS011;37205;51.434;6.756;2023-12-07T07:03:14;62.70;;;38.88;;
50803;SDS011;37205;51.434;6.756;2023-12-07T07:05:40;68.35;;;38.38;;
50803;SDS011;37205;51.434;6.756;2023-12-07T07:08:06;70.60;;;40.35;;
50803;SDS011;37205;51.434;6.756;2023-12-07T07:10:33;63.45;;;37.35;;
50803;SDS011;37205;51.434;6.756;2023-12-07T07:13:02;66.53;;;39.83;;
50803;SDS011;37205;51.434;6.756;2023-12-07T07:15:30;65.72;;;38.55;;
50803;SDS011;37205;51.434;6.756;2023-12-07T07:17:57;66.45;;;38.67;;
50803;SDS011;37205;51.434;6.756;2023-12-07T07:20:22;70.65;;;39.25;;
50803;SDS011;37205;51.434;6.756;2023-12-07T07:22:48;72.88;;;39.30;;
50803;SDS011;37205;51.434;6.756;2023-12-07T07:25:14;73.78;;;39.08;;
50803;SDS011;37205;51.434;6.756;2023-12-07T07:27:44;69.40;;;39.92;;
50803;SDS011;37205;51.434;6.756;2023-12-07T07:30:11;73.47;;;38.50;;
50803;SDS011;37205;51.434;6.756;2023-12-07T07:32:37;76.72;;;40.85;;
50803;SDS011;37205;51.434;6.756;2023-12-07T07:35:02;72.30;;;40.05;;
50803;SDS011;37205;51.434;6.756;2023-12-07T07:37:28;73.07;;;38.42;;
50803;SDS011;37205;51.434;6.756;2023-12-07T07:39:54;72.10;;;39.67;;
50803;SDS011;37205;51.434;6.756;2023-12-07T07:42:19;74.00;;;39.25;;
50803;SDS011;37205;51.434;6.756;2023-12-07T07:44:45;76.07;;;38.67;;
50803;SDS011;37205;51.434;6.756;2023-12-07T07:47:11;73.68;;;38.15;;
50803;SDS011;37205;51.434;6.756;2023-12-07T07:49:36;77.40;;;41.00;;
50803;SDS011;37205;51.434;6.756;2023-12-07T07:52:02;82.50;;;40.40;;
50803;SDS011;37205;51.434;6.756;2023-12-07T07:54:28;82.82;;;39.90;;
50803;SDS011;37205;51.434;6.756;2023-12-07T07:56:53;78.80;;;42.08;;
50803;SDS011;37205;51.434;6.756;2023-12-07T07:59:19;78.75;;;41.25;;
50803;SDS011;37205;51.434;6.756;2023-12-07T08:01:45;71.05;;;38.97;;
50803;SDS011;37205;51.434;6.756;2023-12-07T08:04:12;77.93;;;39.65;;
50803;SDS011;37205;51.434;6.756;2023-12-07T08:06:37;77.07;;;40.35;;
50803;SDS011;37205;51.434;6.756;2023-12-07T08:09:03;76.00;;;39.42;;
50803;SDS011;37205;51.434;6.756;2023-12-07T08:11:29;77.32;;;39.35;;
50803;SDS011;37205;51.434;6.756;2023-12-07T08:13:54;79.10;;;40.90;;
50803;SDS011;37205;51.434;6.756;2023-12-07T08:16:20;75.05;;;39.85;;
50803;SDS011;37205;51.434;6.756;2023-12-07T08:18:47;76.15;;;38.55;;
50803;SDS011;37205;51.434;6.756;2023-12-07T08:21:22;79.70;;;40.67;;
50803;SDS011;37205;51.434;6.756;2023-12-07T08:23:48;69.13;;;37.22;;
50803;SDS011;37205;51.434;6.756;2023-12-07T08:26:14;73.13;;;38.90;;
50803;SDS011;37205;51.434;6.756;2023-12-07T08:28:41;69.68;;;38.80;;
50803;SDS011;37205;51.434;6.756;2023-12-07T08:31:06;67.75;;;38.05;;
50803;SDS011;37205;51.434;6.756;2023-12-07T08:33:32;68.90;;;37.60;;
50803;SDS011;37205;51.434;6.756;2023-12-07T08:35:59;66.00;;;38.08;;
50803;SDS011;37205;51.434;6.756;2023-12-07T08:38:25;69.75;;;39.42;;
50803;SDS011;37205;51.434;6.756;2023-12-07T08:40:51;64.40;;;38.83;;
50803;SDS011;37205;51.434;6.756;2023-12-07T08:43:19;64.72;;;38.28;;
50803;SDS011;37205;51.434;6.756;2023-12-07T08:45:46;66.57;;;38.35;;
50803;SDS011;37205;51.434;6.756;2023-12-07T08:48:12;62.67;;;38.80;;
50803;SDS011;37205;51.434;6.756;2023-12-07T08:50:37;67.05;;;39.20;;
50803;SDS011;37205;51.434;6.756;2023-12-07T08:53:03;62.80;;;36.28;;
50803;SDS011;37205;51.434;6.756;2023-12-07T08:55:28;58.30;;;35.33;;
50803;SDS011;37205;51.434;6.756;2023-12-07T08:57:55;60.67;;;34.80;;
50803;SDS011;37205;51.434;6.756;2023-12-07T09:00:21;57.88;;;35.72;;
50803;SDS011;37205;51.434;6.756;2023-12-07T09:02:49;57.50;;;35.20;;
50803;SDS011;37205;51.434;6.756;2023-12-07T09:05:15;56.80;;;34.78;;
50803;SDS011;37205;51.434;6.756;2023-12-07T09:07:40;58.25;;;32.45;;
50803;SDS011;37205;51.434;6.756;2023-12-07T09:10:07;48.65;;;31.00;;
50803;SDS011;37205;51.434;6.756;2023-12-07T09:12:33;47.33;;;31.85;;
50803;SDS011;37205;51.434;6.756;2023-12-07T09:15:00;42.30;;;28.05;;
50803;SDS011;37205;51.434;6.756;2023-12-07T09:17:27;43.25;;;28.33;;
50803;SDS011;37205;51.434;6.756;2023-12-07T09:19:55;42.83;;;27.50;;
50803;SDS011;37205;51.434;6.756;2023-12-07T09:22:21;43.85;;;27.50;;
50803;SDS011;37205;51.434;6.756;2023-12-07T09:24:46;40.20;;;26.92;;
50803;SDS011;37205;51.434;6.756;2023-12-07T09:27:14;42.05;;;26.30;;
50803;SDS011;37205;51.434;6.756;2023-12-07T09:29:40;37.55;;;25.95;;
50803;SDS011;37205;51.434;6.756;2023-12-07T09:32:07;38.15;;;25.85;;
50803;SDS011;37205;51.434;6.756;2023-12-07T09:34:32;40.60;;;26.17;;
50803;SDS011;37205;51.434;6.756;2023-12-07T09:37:08;38.80;;;25.70;;
50803;SDS011;37205;51.434;6.756;2023-12-07T09:39:34;38.80;;;24.38;;
50803;SDS011;37205;51.434;6.756;2023-12-07T09:42:01;35.60;;;24.50;;
50803;SDS011;37205;51.434;6.756;2023-12-07T09:44:27;35.60;;;24.25;;
50803;SDS011;37205;51.434;6.756;2023-12-07T09:46:52;35.70;;;24.63;;
50803;SDS011;37205;51.434;6.756;2023-12-07T09:49:18;34.20;;;23.25;;
50803;SDS011;37205;51.434;6.756;2023-12-07T09:51:44;35.03;;;23.40;;
50803;SDS011;37205;51.434;6.756;2023-12-07T09:54:11;34.45;;;23.58;;
50803;SDS011;37205;51.434;6.756;2023-12-07T09:56:37;34.78;;;23.85;;
50803;SDS011;37205;51.434;6.756;2023-12-07T09:59:02;33.60;;;23.33;;
50803;SDS011;37205;51.434;6.756;2023-12-07T10:01:29;34.05;;;22.77;;
50803;SDS011;37205;51.434;6.756;2023-12-07T10:06:48;32.47;;;21.90;;
50803;SDS011;37205;51.434;6.756;2023-12-07T10:09:14;32.15;;;21.75;;
50803;SDS011;37205;51.434;6.756;2023-12-07T10:11:40;28.10;;;19.55;;
50803;SDS011;37205;51.434;6.756;2023-12-07T10:14:07;28.00;;;18.95;;
50803;SDS011;37205;51.434;6.756;2023-12-07T10:16:33;25.73;;;18.00;;
50803;SDS011;37205;51.434;6.756;2023-12-07T10:19:15;25.13;;;18.45;;
50803;SDS011;37205;51.434;6.756;2023-12-07T10:21:47;25.48;;;18.15;;
50803;SDS011;37205;51.434;6.756;2023-12-07T10:24:13;24.80;;;17.65;;
50803;SDS011;37205;51.434;6.756;2023-12-07T10:26:40;26.38;;;17.75;;
50803;SDS011;37205;51.434;6.756;2023-12-07T10:29:06;27.85;;;17.98;;
50803;SDS011;37205;51.434;6.756;2023-12-07T10:31:32;28.55;;;19.88;;
50803;SDS011;37205;51.434;6.756;2023-12-07T10:34:01;24.63;;;17.73;;
50803;SDS011;37205;51.434;6.756;2023-12-07T10:36:26;26.83;;;18.52;;
50803;SDS011;37205;51.434;6.756;2023-12-07T10:38:52;22.55;;;17.00;;
50803;SDS011;37205;51.434;6.756;2023-12-07T10:41:19;25.60;;;18.25;;
50803;SDS011;37205;51.434;6.756;2023-12-07T10:43:48;26.55;;;17.67;;
50803;SDS011;37205;51.434;6.756;2023-12-07T10:46:16;23.80;;;17.08;;
50803;SDS011;37205;51.434;6.756;2023-12-07T10:48:47;27.30;;;17.67;;
50803;SDS011;37205;51.434;6.756;2023-12-07T10:54:16;20.35;;;14.63;;
50803;SDS011;37205;51.434;6.756;2023-12-07T10:56:45;18.77;;;14.25;;
50803;SDS011;37205;51.434;6.756;2023-12-07T10:59:11;24.45;;;15.07;;
50803;SDS011;37205;51.434;6.756;2023-12-07T11:01:40;21.85;;;15.25;;
50803;SDS011;37205;51.434;6.756;2023-12-07T11:04:11;22.15;;;15.13;;
50803;SDS011;37205;51.434;6.756;2023-12-07T11:06:41;23.27;;;15.27;;
50803;SDS011;37205;51.434;6.756;2023-12-07T11:09:09;22.70;;;14.75;;
50803;SDS011;37205;51.434;6.756;2023-12-07T11:14:13;22.67;;;15.40;;
50803;SDS011;37205;51.434;6.756;2023-12-07T11:16:42;24.52;;;15.75;;
50803;SDS011;37205;51.434;6.756;2023-12-07T11:22:02;22.67;;;14.52;;
50803;SDS011;37205;51.434;6.756;2023-12-07T11:24:29;22.30;;;15.25;;
50803;SDS011;37205;51.434;6.756;2023-12-07T11:26:55;23.38;;;15.50;;
50803;SDS011;37205;51.434;6.756;2023-12-07T11:29:21;19.50;;;14.52;;
50803;SDS011;37205;51.434;6.756;2023-12-07T11:31:49;20.20;;;15.50;;
50803;SDS011;37205;51.434;6.756;2023-12-07T11:37:04;21.42;;;14.23;;
50803;SDS011;37205;51.434;6.756;2023-12-07T11:39:37;23.08;;;15.07;;
50803;SDS011;37205;51.434;6.756;2023-12-07T11:42:07;20.08;;;14.45;;
50803;SDS011;37205;51.434;6.756;2023-12-07T11:44:39;21.40;;;13.57;;
50803;SDS011;37205;51.434;6.756;2023-12-07T11:47:06;21.17;;;14.13;;
50803;SDS011;37205;51.434;6.756;2023-12-07T11:49:32;18.63;;;13.60;;
50803;SDS011;37205;51.434;6.756;2023-12-07T11:51:58;18.83;;;13.93;;
50803;SDS011;37205;51.434;6.756;2023-12-07T11:54:24;20.15;;;14.00;;
50803;SDS011;37205;51.434;6.756;2023-12-07T11:56:52;20.92;;;14.23;;
50803;SDS011;37205;51.434;6.756;2023-12-07T11:59:18;20.00;;;14.15;;
50803;SDS011;37205;51.434;6.756;2023-12-07T12:01:47;20.77;;;14.55;;
50803;SDS011;37205;51.434;6.756;2023-12-07T12:04:14;21.20;;;14.80;;
50803;SDS011;37205;51.434;6.756;2023-12-07T12:06:40;20.55;;;14.77;;
50803;SDS011;37205;51.434;6.756;2023-12-07T12:09:08;22.58;;;14.45;;
50803;SDS011;37205;51.434;6.756;2023-12-07T12:11:35;18.63;;;12.98;;
50803;SDS011;37205;51.434;6.756;2023-12-07T12:14:01;21.42;;;13.40;;
50803;SDS011;37205;51.434;6.756;2023-12-07T12:16:27;20.63;;;13.75;;
50803;SDS011;37205;51.434;6.756;2023-12-07T12:18:52;19.50;;;13.43;;
50803;SDS011;37205;51.434;6.756;2023-12-07T12:21:18;20.77;;;13.70;;
50803;SDS011;37205;51.434;6.756;2023-12-07T12:23:46;17.88;;;12.88;;
50803;SDS011;37205;51.434;6.756;2023-12-07T12:26:13;18.98;;;13.10;;
50803;SDS011;37205;51.434;6.756;2023-12-07T12:28:39;18.48;;;13.60;;
50803;SDS011;37205;51.434;6.756;2023-12-07T12:31:08;20.35;;;13.20;;
50803;SDS011;37205;51.434;6.756;2023-12-07T12:33:37;17.23;;;13.52;;
50803;SDS011;37205;51.434;6.756;2023-12-07T12:36:04;18.85;;;12.48;;
50803;SDS011;37205;51.434;6.756;2023-12-07T12:38:31;19.60;;;12.93;;
50803;SDS011;37205;51.434;6.756;2023-12-07T12:40:58;17.73;;;12.55;;
50803;SDS011;37205;51.434;6.756;2023-12-07T12:43:23;18.48;;;12.88;;
50803;SDS011;37205;51.434;6.756;2023-12-07T12:45:49;18.95;;;13.07;;
50803;SDS011;37205;51.434;6.756;2023-12-07T12:48:15;18.33;;;12.57;;
50803;SDS011;37205;51.434;6.756;2023-12-07T12:50:40;17.95;;;12.88;;
50803;SDS011;37205;51.434;6.756;2023-12-07T12:53:07;19.65;;;12.63;;
50803;SDS011;37205;51.434;6.756;2023-12-07T12:55:39;17.58;;;12.80;;
50803;SDS011;37205;51.434;6.756;2023-12-07T12:58:06;17.70;;;12.60;;
50803;SDS011;37205;51.434;6.756;2023-12-07T13:00:33;16.35;;;11.93;;
50803;SDS011;37205;51.434;6.756;2023-12-07T13:02:59;16.38;;;12.65;;
50803;SDS011;37205;51.434;6.756;2023-12-07T13:05:26;17.80;;;12.77;;
50803;SDS011;37205;51.434;6.756;2023-12-07T13:07:52;18.35;;;13.13;;
50803;SDS011;37205;51.434;6.756;2023-12-07T13:10:18;20.17;;;13.32;;
50803;SDS011;37205;51.434;6.756;2023-12-07T13:12:43;18.13;;;12.40;;
50803;SDS011;37205;51.434;6.756;2023-12-07T13:15:10;18.85;;;11.95;;
50803;SDS011;37205;51.434;6.756;2023-12-07T13:17:37;17.48;;;12.45;;
50803;SDS011;37205;51.434;6.756;2023-12-07T13:20:04;15.43;;;11.75;;
50803;SDS011;37205;51.434;6.756;2023-12-07T13:22:31;15.88;;;11.85;;
50803;SDS011;37205;51.434;6.756;2023-12-07T13:24:57;15.10;;;12.00;;
50803;SDS011;37205;51.434;6.756;2023-12-07T13:27:23;18.33;;;12.68;;
50803;SDS011;37205;51.434;6.756;2023-12-07T13:29:48;17.15;;;12.05;;
50803;SDS011;37205;51.434;6.756;2023-12-07T13:32:15;17.90;;;11.07;;
50803;SDS011;37205;51.434;6.756;2023-12-07T13:34:40;15.93;;;11.30;;
50803;SDS011;37205;51.434;6.756;2023-12-07T13:37:06;16.65;;;11.95;;
50803;SDS011;37205;51.434;6.756;2023-12-07T13:39:32;19.23;;;11.57;;
50803;SDS011;37205;51.434;6.756;2023-12-07T13:41:58;15.85;;;11.90;;
50803;SDS011;37205;51.434;6.756;2023-12-07T13:44:24;16.90;;;12.25;;
50803;SDS011;37205;51.434;6.756;2023-12-07T13:46:50;18.15;;;12.07;;
50803;SDS011;37205;51.434;6.756;2023-12-07T13:49:18;15.32;;;11.07;;
50803;SDS011;37205;51.434;6.756;2023-12-07T13:51:44;16.60;;;11.48;;
50803;SDS011;37205;51.434;6.756;2023-12-07T13:54:11;17.27;;;11.30;;
50803;SDS011;37205;51.434;6.756;2023-12-07T13:56:37;16.45;;;11.27;;
50803;SDS011;37205;51.434;6.756;2023-12-07T13:59:02;15.65;;;11.25;;
50803;SDS011;37205;51.434;6.756;2023-12-07T14:01:28;15.77;;;11.95;;
50803;SDS011;37205;51.434;6.756;2023-12-07T14:03:56;16.08;;;11.23;;
50803;SDS011;37205;51.434;6.756;2023-12-07T14:06:22;17.13;;;10.65;;
50803;SDS011;37205;51.434;6.756;2023-12-07T14:08:49;16.23;;;11.52;;
50803;SDS011;37205;51.434;6.756;2023-12-07T14:11:14;17.95;;;11.18;;
50803;SDS011;37205;51.434;6.756;2023-12-07T14:13:41;15.45;;;11.25;;
50803;SDS011;37205;51.434;6.756;2023-12-07T14:16:06;16.17;;;10.85;;
50803;SDS011;37205;51.434;6.756;2023-12-07T14:18:33;16.42;;;10.75;;
50803;SDS011;37205;51.434;6.756;2023-12-07T14:20:59;17.10;;;11.07;;
50803;SDS011;37205;51.434;6.756;2023-12-07T14:23:24;15.13;;;10.25;;
50803;SDS011;37205;51.434;6.756;2023-12-07T14:25:51;14.63;;;10.30;;
50803;SDS011;37205;51.434;6.756;2023-12-07T14:28:17;14.55;;;10.48;;
50803;SDS011;37205;51.434;6.756;2023-12-07T14:30:43;15.77;;;10.25;;